Time;durP1;ratioP1;P1;durP2;ratioP2;P2;SDS_P1;SDS_P2;PMS_P1;PMS_P2;Temp;Humidity;BMP_temperature;BMP_pressure;BME280_temperature;BME280_humidity;BME280_pressure;Samples;Min_cycle;Max_cycle;Signal;HPM_P1;HPM_P2
2021/03/21 00:00:48;;;;;;;6.97;5.10;;;4.60;86.80;11.60;100160.00;;;;5050853;28;20221;-68
2021/03/21 00:03:15;;;;;;;7.03;4.68;;;4.60;86.70;11.60;100150.00;;;;5050402;28;20537;-69
2021/03/21 00:05:41;;;;;;;7.75;5.20;;;4.60;86.80;11.60;100155.00;;;;5032935;28;20237;-69
2021/03/21 00:08:22;;;;;;;7.60;4.87;;;4.60;86.70;11.70;100150.00;;;;5034421;28;20202;-69
2021/03/21 00:10:52;;;;;;;6.70;4.45;;;4.60;86.70;11.90;100127.00;;;;5050091;28;20462;-69
2021/03/21 00:13:19;;;;;;;8.98;4.90;;;4.50;86.60;11.70;100125.00;;;;5050995;28;20257;-69
2021/03/21 00:15:45;;;;;;;6.50;4.88;;;4.60;86.70;11.70;100130.00;;;;5050004;28;20213;-69
2021/03/21 00:18:11;;;;;;;6.50;4.85;;;4.50;86.60;11.70;100144.00;;;;5033881;28;20186;-69
2021/03/21 00:20:37;;;;;;;11.33;5.37;;;4.50;86.60;11.60;100132.00;;;;5050452;28;20741;-69
2021/03/21 00:23:03;;;;;;;7.28;5.20;;;4.50;86.60;11.70;100137.00;;;;5049915;28;20439;-69
2021/03/21 00:25:31;;;;;;;7.60;5.35;;;4.50;86.60;11.60;100090.00;;;;5050687;28;20568;-69
2021/03/21 00:27:57;;;;;;;6.75;4.82;;;4.50;86.60;11.80;100112.00;;;;5050326;28;20179;-69
2021/03/21 00:30:29;;;;;;;7.93;4.88;;;4.50;86.60;11.70;100120.00;;;;5049750;28;20223;-69
2021/03/21 00:32:55;;;;;;;8.00;5.28;;;4.50;86.50;11.60;100113.00;;;;5028207;28;20214;-69
2021/03/21 00:35:21;;;;;;;6.63;4.97;;;4.50;86.50;11.60;100115.00;;;;5047742;28;20322;-69
2021/03/21 00:37:47;;;;;;;8.07;5.33;;;4.50;86.50;11.80;100126.00;;;;5069492;28;20414;-69
2021/03/21 00:40:19;;;;;;;8.68;5.68;;;4.50;86.50;11.80;100117.00;;;;5053376;28;20521;-69
2021/03/21 00:42:45;;;;;;;6.90;4.80;;;4.50;86.50;11.60;100118.00;;;;5069879;28;20235;-69
2021/03/21 00:45:12;;;;;;;8.63;5.30;;;4.50;86.50;11.70;100101.00;;;;5068893;28;20185;-69
2021/03/21 00:47:38;;;;;;;5.90;4.03;;;4.50;86.50;11.60;100101.00;;;;5053550;28;20919;-69
2021/03/21 00:50:07;;;;;;;6.93;5.00;;;4.50;86.40;11.70;100098.00;;;;5071089;28;20178;-69
2021/03/21 00:52:32;;;;;;;7.55;4.78;;;4.50;86.50;11.60;100112.00;;;;5068951;28;20212;-69
2021/03/21 00:54:58;;;;;;;9.40;5.27;;;4.50;86.50;11.50;100097.00;;;;5069445;28;20217;-69
2021/03/21 00:57:24;;;;;;;8.33;5.10;;;4.50;86.40;11.50;100087.00;;;;5069967;28;20533;-69
2021/03/21 00:59:49;;;;;;;7.13;5.23;;;4.50;86.40;11.70;100098.00;;;;5069576;28;20181;-69
2021/03/21 01:02:15;;;;;;;8.23;4.80;;;4.50;86.40;11.40;100078.00;;;;5069060;28;20208;-69
2021/03/21 01:04:41;;;;;;;8.13;5.10;;;4.50;86.30;11.60;100089.00;;;;5070309;28;20282;-68
2021/03/21 01:07:07;;;;;;;7.50;4.40;;;4.40;86.20;11.60;100081.00;;;;5069800;28;20451;-68
2021/03/21 01:09:33;;;;;;;8.37;5.43;;;4.40;86.20;11.70;100085.00;;;;5069506;28;20253;-69
2021/03/21 01:11:58;;;;;;;6.50;4.67;;;4.40;86.20;11.70;100066.00;;;;5068954;28;20455;-69
2021/03/21 01:14:24;;;;;;;7.13;5.20;;;4.40;86.20;11.60;100075.00;;;;5069631;28;20231;-69
2021/03/21 01:16:50;;;;;;;5.93;4.40;;;4.40;86.30;11.70;100063.00;;;;5070163;28;20201;-69
2021/03/21 01:19:18;;;;;;;7.88;5.00;;;4.40;86.20;11.60;100066.00;;;;5068866;28;20848;-69
2021/03/21 01:21:44;;;;;;;8.85;5.53;;;4.40;86.20;11.80;100054.00;;;;5069108;28;20228;-69
2021/03/21 01:24:17;;;;;;;7.43;5.03;;;4.40;86.20;11.80;100065.00;;;;5053134;28;20200;-69
2021/03/21 01:26:43;;;;;;;6.50;4.72;;;4.40;86.20;11.70;100054.00;;;;5068344;28;20573;-69
2021/03/21 01:29:09;;;;;;;5.97;4.80;;;4.40;86.20;11.70;100052.00;;;;5069269;28;20260;-69
2021/03/21 01:31:35;;;;;;;6.53;4.70;;;4.40;86.20;11.50;100041.00;;;;5070398;28;20447;-69
2021/03/21 01:34:00;;;;;;;9.13;5.40;;;4.40;86.20;11.60;100053.00;;;;5068140;28;20663;-70
2021/03/21 01:36:30;;;;;;;6.53;4.30;;;4.40;86.10;11.70;100047.00;;;;5052661;28;20221;-70
2021/03/21 01:38:57;;;;;;;7.80;4.95;;;4.40;86.20;11.70;100040.00;;;;5069033;28;20520;-70
2021/03/21 01:41:36;;;;;;;8.05;4.97;;;4.40;86.20;11.40;100037.00;;;;5051506;28;20251;-70
2021/03/21 01:44:08;;;;;;;8.65;5.65;;;4.40;86.10;11.70;100039.00;;;;5053159;28;20184;-69
2021/03/21 01:46:34;;;;;;;8.18;5.65;;;4.30;86.00;11.70;100041.00;;;;5068166;28;20294;-70
2021/03/21 01:48:59;;;;;;;8.07;5.33;;;4.40;86.20;11.60;100028.00;;;;5069726;28;20590;-70
2021/03/21 01:51:31;;;;;;;7.93;4.97;;;4.40;86.10;11.50;100041.00;;;;5069247;28;20201;-69
2021/03/21 01:54:00;;;;;;;7.60;5.25;;;4.40;86.10;11.50;100024.00;;;;5068681;28;20487;-70
2021/03/21 01:56:27;;;;;;;8.07;5.05;;;4.40;86.10;11.50;100026.00;;;;5069182;28;20193;-69
2021/03/21 01:59:15;;;;;;;7.05;4.63;;;4.30;86.00;11.80;100038.00;;;;5068512;28;20209;-70
2021/03/21 02:01:42;;;;;;;7.47;4.95;;;4.30;85.90;11.50;100034.00;;;;5068255;28;20234;-69
2021/03/21 02:04:08;;;;;;;7.47;4.50;;;4.30;86.00;11.60;100013.00;;;;5068814;28;20173;-70
2021/03/21 02:06:40;;;;;;;8.57;5.15;;;4.30;86.00;11.60;100028.00;;;;5068795;28;20278;-69
2021/03/21 02:09:55;;;;;;;9.95;5.68;;;4.30;86.00;11.30;100022.00;;;;5068027;28;20686;-69
2021/03/21 02:12:36;;;;;;;7.75;5.00;;;4.30;86.00;11.40;100015.00;;;;5055731;28;20239;-70
2021/03/21 02:15:16;;;;;;;6.40;4.82;;;4.30;86.00;11.50;100004.00;;;;5069390;28;20205;-69
2021/03/21 02:18:05;;;;;;;7.22;4.80;;;4.30;85.90;11.50;99998.00;;;;5069387;28;20227;-70
2021/03/21 02:20:55;;;;;;;7.43;4.55;;;4.30;86.00;11.40;99999.00;;;;5069611;28;20744;-70
2021/03/21 02:23:55;;;;;;;7.97;4.97;;;4.30;86.00;11.60;99989.00;;;;5069059;28;20586;-69
2021/03/21 02:27:14;;;;;;;10.02;5.55;;;4.30;85.90;11.40;99995.00;;;;5068286;28;20288;-70
2021/03/21 02:30:04;;;;;;;7.10;5.18;;;4.30;85.90;11.50;99987.00;;;;5057089;28;20197;-70
2021/03/21 02:32:58;;;;;;;8.85;5.50;;;4.30;85.90;11.40;99993.00;;;;5068139;28;20177;-70
2021/03/21 02:36:00;;;;;;;8.25;5.88;;;4.30;86.00;11.40;99981.00;;;;5068205;28;20216;-70
2021/03/21 02:38:35;;;;;;;6.68;5.00;;;4.30;85.90;11.50;99984.00;;;;5068070;28;20197;-70
2021/03/21 02:41:07;;;;;;;8.07;5.10;;;4.30;85.80;11.60;99982.00;;;;5068918;28;20213;-70
2021/03/21 02:43:45;;;;;;;8.70;5.03;;;4.30;85.80;11.40;99976.00;;;;5067529;28;20182;-69
2021/03/21 02:46:19;;;;;;;8.55;4.82;;;4.20;85.80;11.50;99977.00;;;;5068753;28;20211;-69
2021/03/21 02:49:04;;;;;;;7.60;4.50;;;4.20;85.70;11.70;99969.00;;;;5068765;28;20178;-69
2021/03/21 02:51:43;;;;;;;7.10;4.78;;;4.20;85.70;11.60;99959.00;;;;5068235;28;20201;-70
2021/03/21 02:54:47;;;;;;;8.18;5.25;;;4.20;85.70;11.60;99952.00;;;;5068507;28;20221;-69
2021/03/21 02:57:16;;;;;;;7.00;4.72;;;4.20;85.70;11.30;99949.00;;;;5040987;28;20227;-69
2021/03/21 02:59:50;;;;;;;7.95;5.80;;;4.20;85.70;11.50;99947.00;;;;5072445;28;20178;-70
2021/03/21 03:02:39;;;;;;;8.15;5.43;;;4.20;85.70;11.40;99948.00;;;;5072686;28;20284;-70
2021/03/21 03:05:27;;;;;;;8.38;5.00;;;4.20;85.70;11.60;99942.00;;;;5054701;28;20181;-69
2021/03/21 03:08:06;;;;;;;8.70;4.93;;;4.20;85.60;11.60;99935.00;;;;5071486;28;20731;-70
2021/03/21 03:10:50;;;;;;;8.40;5.00;;;4.20;85.70;11.40;99933.00;;;;5072261;28;20228;-69
2021/03/21 03:13:24;;;;;;;8.43;5.30;;;4.20;85.70;11.40;99933.00;;;;5054996;28;20652;-69
2021/03/21 03:15:53;;;;;;;6.55;4.60;;;4.20;85.60;11.40;99923.00;;;;5072100;28;20217;-69
2021/03/21 03:19:04;;;;;;;6.88;5.07;;;4.20;85.70;11.40;99919.00;;;;5071076;28;20181;-69
2021/03/21 03:21:40;;;;;;;8.48;5.28;;;4.10;85.50;11.30;99919.00;;;;5064198;28;20213;-69
2021/03/21 03:24:33;;;;;;;7.28;5.05;;;4.20;85.70;11.40;99913.00;;;;5054666;28;20188;-69
2021/03/21 03:27:14;;;;;;;6.22;4.25;;;4.20;85.60;11.50;99908.00;;;;5054433;28;20213;-69
2021/03/21 03:29:59;;;;;;;7.45;5.10;;;4.20;85.60;11.50;99898.00;;;;5071482;28;20589;-69
2021/03/21 03:32:27;;;;;;;7.00;4.88;;;4.20;85.60;11.30;99893.00;;;;5071329;28;20667;-68
2021/03/21 03:34:55;;;;;;;7.05;4.50;;;4.10;85.50;11.50;99900.00;;;;5071266;28;20209;-68
2021/03/21 03:37:22;;;;;;;7.43;5.25;;;4.20;85.60;11.30;99901.00;;;;5072080;28;20205;-69
2021/03/21 03:39:48;;;;;;;9.35;5.75;;;4.20;85.60;11.50;99895.00;;;;5038118;28;20225;-69
2021/03/21 03:43:00;;;;;;;7.23;5.00;;;4.10;85.50;11.40;99895.00;;;;5073521;28;20247;-69
2021/03/21 03:46:03;;;;;;;9.18;5.55;;;4.10;85.50;11.40;99897.00;;;;5071940;28;20315;-69
2021/03/21 03:48:51;;;;;;;7.85;4.82;;;4.10;85.40;11.30;99888.00;;;;5071857;28;20191;-68
2021/03/21 03:51:34;;;;;;;7.88;5.03;;;4.10;86.30;11.30;99878.00;;;;5071896;28;20193;-68
2021/03/21 03:54:23;;;;;;;7.22;4.53;;;4.10;85.50;11.40;99865.00;;;;5071028;28;20181;-68
2021/03/21 03:57:06;;;;;;;7.65;5.07;;;4.10;85.50;11.40;99856.00;;;;5071273;28;20194;-68
2021/03/21 03:59:51;;;;;;;7.82;4.60;;;4.10;85.40;11.50;99861.00;;;;5055006;28;20186;-68
2021/03/21 04:02:42;;;;;;;8.05;5.10;;;4.10;85.50;11.40;99847.00;;;;5071128;28;20737;-69
2021/03/21 04:05:32;;;;;;;9.13;5.50;;;4.10;85.50;11.40;99851.00;;;;5070426;28;20272;-68
2021/03/21 04:08:19;;;;;;;6.57;4.43;;;4.10;85.50;11.30;99853.00;;;;5042633;28;20382;-68
2021/03/21 04:11:36;;;;;;;8.25;5.03;;;4.10;85.40;11.40;99851.00;;;;5070351;28;20205;-68
2021/03/21 04:14:22;;;;;;;8.98;4.90;;;4.10;85.40;11.40;99835.00;;;;5053068;28;20217;-68
2021/03/21 04:16:57;;;;;;;6.93;4.50;;;4.10;85.40;11.40;99840.00;;;;5070925;28;20197;-68
2021/03/21 04:19:25;;;;;;;6.95;4.35;;;4.10;85.40;11.40;99835.00;;;;5070556;28;20192;-69
2021/03/21 04:22:21;;;;;;;7.55;4.35;;;4.10;85.50;11.40;99829.00;;;;5069913;28;20296;-69
2021/03/21 04:25:20;;;;;;;6.72;4.43;;;4.10;85.50;11.30;99831.00;;;;5056414;28;20173;-69
2021/03/21 04:28:23;;;;;;;7.85;5.00;;;4.00;85.40;11.30;99811.00;;;;5071009;28;20177;-69
2021/03/21 04:30:57;;;;;;;8.18;4.65;;;4.00;85.30;11.30;99820.00;;;;5054092;28;20208;-68
2021/03/21 04:33:26;;;;;;;7.00;4.68;;;4.00;85.40;11.40;99812.00;;;;5070739;28;20185;-69
2021/03/21 04:36:10;;;;;;;5.65;4.00;;;4.00;85.40;11.20;99808.00;;;;5068622;28;20247;-69
2021/03/21 04:38:58;;;;;;;7.85;4.65;;;4.00;85.40;11.60;99817.00;;;;5037136;28;20204;-69
2021/03/21 04:41:28;;;;;;;6.40;4.45;;;4.00;85.40;11.50;99819.00;;;;5070233;28;20209;-69
2021/03/21 04:44:07;;;;;;;8.43;4.72;;;4.00;85.40;11.30;99819.00;;;;5069283;28;20268;-68
2021/03/21 04:46:43;;;;;;;7.57;5.10;;;4.00;85.40;11.50;99813.00;;;;5053599;28;20204;-69
2021/03/21 04:49:08;;;;;;;7.47;4.60;;;4.00;85.40;11.40;99813.00;;;;5069473;28;20257;-69
2021/03/21 04:51:41;;;;;;;7.20;4.70;;;4.00;85.40;11.50;99808.00;;;;5069447;28;20723;-70
2021/03/21 04:54:30;;;;;;;8.40;5.13;;;4.00;85.40;11.30;99808.00;;;;5069439;28;20564;-70
2021/03/21 04:57:23;;;;;;;6.45;4.20;;;4.00;85.40;11.40;99809.00;;;;5069534;28;20229;-69
2021/03/21 04:59:49;;;;;;;8.27;4.53;;;4.00;85.40;11.30;99794.00;;;;5069825;28;20324;-69
2021/03/21 05:02:30;;;;;;;7.88;4.85;;;4.00;85.40;11.40;99804.00;;;;5069757;28;20682;-70
2021/03/21 05:05:01;;;;;;;7.78;4.63;;;4.00;85.40;11.40;99801.00;;;;5068829;28;20182;-69
2021/03/21 05:07:41;;;;;;;6.72;4.30;;;4.00;85.40;11.40;99806.00;;;;5053115;28;20251;-70
2021/03/21 05:10:34;;;;;;;7.40;4.22;;;4.00;85.40;11.50;99810.00;;;;5069275;28;20227;-70
2021/03/21 05:13:10;;;;;;;7.18;4.88;;;4.00;85.40;11.30;99796.00;;;;5069314;28;20300;-69
2021/03/21 05:15:53;;;;;;;6.35;4.35;;;4.00;85.30;11.30;99804.00;;;;5069338;28;20701;-69
2021/03/21 05:19:21;;;;;;;6.63;4.65;;;3.90;85.30;11.40;99794.00;;;;5051768;28;20701;-69
2021/03/21 05:21:54;;;;;;;7.60;4.25;;;3.90;85.20;11.40;99795.00;;;;5053425;28;20220;-70
2021/03/21 05:24:45;;;;;;;7.60;4.35;;;3.90;85.30;11.40;99794.00;;;;5069761;28;20189;-69
2021/03/21 05:27:17;;;;;;;6.43;4.18;;;3.90;85.20;11.40;99786.00;;;;5068684;28;20209;-69
2021/03/21 05:30:02;;;;;;;8.60;4.60;;;3.90;85.30;11.40;99776.00;;;;5068755;28;20647;-69
2021/03/21 05:32:27;;;;;;;8.90;4.63;;;3.90;85.30;11.40;99747.00;;;;5068966;28;20242;-70
2021/03/21 05:34:55;;;;;;;7.23;4.80;;;3.90;85.30;11.40;99774.00;;;;5068911;28;20292;-69
2021/03/21 05:37:41;;;;;;;7.28;4.68;;;3.90;85.30;11.10;99771.00;;;;5068952;28;20204;-70
2021/03/21 05:41:20;;;;;;;5.45;3.95;;;3.90;85.40;11.30;99769.00;;;;5068005;28;20304;-69
2021/03/21 05:44:18;;;;;;;7.72;4.15;;;3.90;85.40;11.10;99769.00;;;;4983124;28;20204;-70
2021/03/21 05:47:13;;;;;;;6.43;4.18;;;3.90;85.40;11.10;99764.00;;;;5068343;28;20208;-69
2021/03/21 05:50:20;;;;;;;7.95;4.80;;;3.90;85.40;11.30;99766.00;;;;5069207;28;20173;-69
2021/03/21 05:53:08;;;;;;;6.10;4.30;;;3.90;85.40;11.20;99749.00;;;;5068785;28;20189;-69
2021/03/21 05:55:50;;;;;;;7.50;4.50;;;3.90;85.40;11.30;99753.00;;;;5068611;28;20209;-69
2021/03/21 05:58:33;;;;;;;6.78;4.40;;;3.90;85.40;11.20;99744.00;;;;5069117;28;20703;-69
2021/03/21 06:01:24;;;;;;;8.00;4.38;;;3.90;85.40;11.00;99749.00;;;;5067988;28;20216;-69
2021/03/21 06:04:10;;;;;;;6.20;3.80;;;3.90;85.40;11.20;99749.00;;;;5069104;28;20177;-69
2021/03/21 06:07:27;;;;;;;6.93;4.32;;;3.90;85.40;11.10;99750.00;;;;5068856;28;20193;-69
2021/03/21 06:10:31;;;;;;;6.68;4.20;;;3.90;85.40;11.20;99745.00;;;;5024573;28;20668;-69
2021/03/21 06:13:28;;;;;;;9.23;4.63;;;3.90;85.40;11.30;99737.00;;;;5068910;28;20237;-69
2021/03/21 06:16:36;;;;;;;6.95;4.30;;;3.80;85.40;11.00;99752.00;;;;5068252;28;20213;-69
2021/03/21 06:19:24;;;;;;;7.40;4.30;;;3.80;86.10;11.30;99738.00;;;;5068538;28;20231;-69
2021/03/21 06:22:39;;;;;;;8.40;4.18;;;3.80;85.30;11.30;99748.00;;;;5068935;28;20647;-69
2021/03/21 06:25:36;;;;;;;7.45;3.97;;;3.80;85.30;11.30;99738.00;;;;5069832;28;20227;-69
2021/03/21 06:28:36;;;;;;;7.75;4.60;;;3.80;85.40;11.10;99733.00;;;;5068893;28;20612;-69
2021/03/21 06:31:46;;;;;;;7.55;4.57;;;3.80;85.30;11.10;99715.00;;;;5055911;28;20204;-68
2021/03/21 06:34:49;;;;;;;7.07;3.95;;;3.80;85.30;11.10;99730.00;;;;5072720;28;20205;-68
2021/03/21 06:37:42;;;;;;;7.20;4.20;;;3.80;85.40;11.40;99726.00;;;;5071036;28;20227;-69
2021/03/21 06:40:36;;;;;;;8.68;5.22;;;3.80;85.40;11.20;99715.00;;;;5072728;28;20228;-69
2021/03/21 06:43:44;;;;;;;6.25;3.88;;;3.80;85.40;11.30;99724.00;;;;5073076;28;20211;-68
2021/03/21 06:47:23;;;;;;;7.68;5.40;;;3.80;85.40;11.20;99723.00;;;;5071512;28;20598;-68
2021/03/21 06:50:28;;;;;;;7.82;4.35;;;3.80;85.40;11.40;99723.00;;;;5010779;28;20682;-69
2021/03/21 06:53:46;;;;;;;9.07;4.68;;;3.80;85.50;11.30;99727.00;;;;5059911;28;20581;-68
2021/03/21 06:56:30;;;;;;;6.85;4.22;;;3.80;85.50;11.10;99727.00;;;;5072635;28;20221;-68
2021/03/21 06:59:07;;;;;;;7.78;5.43;;;3.80;85.50;11.00;99726.00;;;;5073404;28;20643;-68
2021/03/21 07:01:51;;;;;;;6.32;3.53;;;3.80;85.50;11.20;99713.00;;;;5071538;28;20197;-68
2021/03/21 07:04:47;;;;;;;6.97;4.43;;;3.80;85.50;11.30;99715.00;;;;5073071;28;20184;-69
2021/03/21 07:08:08;;;;;;;7.03;4.40;;;3.80;85.50;11.20;99711.00;;;;5072456;28;20206;-68
2021/03/21 07:11:19;;;;;;;7.57;4.70;;;3.80;85.50;11.20;99709.00;;;;5071583;28;20278;-68
2021/03/21 07:14:15;;;;;;;7.70;4.75;;;3.80;85.50;11.10;99699.00;;;;5059155;28;20254;-68
2021/03/21 07:17:14;;;;;;;6.50;3.75;;;3.80;85.50;11.20;99695.00;;;;5072882;28;20290;-68
2021/03/21 07:19:52;;;;;;;11.38;6.40;;;3.80;85.60;11.20;99687.00;;;;5073218;28;20185;-69
2021/03/21 07:22:18;;;;;;;7.80;5.05;;;3.80;85.60;11.30;99693.00;;;;5071188;28;20197;-68
2021/03/21 07:25:09;;;;;;;9.88;5.50;;;3.70;85.50;11.30;99685.00;;;;5072392;28;20230;-69
2021/03/21 07:27:44;;;;;;;8.60;5.10;;;3.80;85.60;11.20;99675.00;;;;5055012;28;20182;-69
2021/03/21 07:30:31;;;;;;;9.32;5.43;;;3.80;85.60;11.10;99681.00;;;;5071657;28;20222;-69
2021/03/21 07:33:17;;;;;;;8.55;5.63;;;3.70;85.50;11.20;99677.00;;;;5071979;28;20181;-69
2021/03/21 07:36:10;;;;;;;9.80;5.93;;;3.70;85.50;11.20;99671.00;;;;5072478;28;20213;-69
2021/03/21 07:39:06;;;;;;;10.40;6.20;;;3.70;85.50;11.30;99673.00;;;;5071362;28;20219;-69
2021/03/21 07:41:56;;;;;;;9.88;5.75;;;3.70;85.50;11.00;99667.00;;;;5072499;28;20230;-69
2021/03/21 07:44:58;;;;;;;10.38;5.93;;;3.70;85.50;11.10;99658.00;;;;5072953;28;20188;-69
2021/03/21 07:47:55;;;;;;;10.95;6.45;;;3.70;85.50;11.10;99654.00;;;;5070444;28;20235;-69
2021/03/21 07:50:53;;;;;;;9.85;6.32;;;3.70;85.50;11.20;99647.00;;;;5072771;28;20189;-69
2021/03/21 07:54:03;;;;;;;9.50;6.40;;;3.70;85.50;11.20;99655.00;;;;5070415;28;20180;-69
2021/03/21 07:57:01;;;;;;;11.43;6.68;;;3.70;85.50;11.10;99648.00;;;;5054192;28;20213;-70
2021/03/21 07:59:31;;;;;;;10.68;6.95;;;3.70;85.50;11.20;99641.00;;;;5053229;28;20284;-70
2021/03/21 08:01:56;;;;;;;9.95;5.93;;;3.70;85.60;11.20;99651.00;;;;5070491;28;20208;-69
2021/03/21 08:04:30;;;;;;;9.20;6.40;;;3.70;85.60;11.20;99639.00;;;;5071238;28;20185;-71
2021/03/21 08:07:28;;;;;;;10.00;6.82;;;3.70;85.60;11.30;99640.00;;;;5069720;28;20694;-69
2021/03/21 08:09:54;;;;;;;9.70;5.63;;;3.70;85.60;11.20;99630.00;;;;5054708;28;20185;-69
2021/03/21 08:12:20;;;;;;;9.13;5.80;;;3.70;85.60;11.20;99632.00;;;;5070392;28;20208;-69
2021/03/21 08:15:25;;;;;;;10.20;6.20;;;3.70;85.60;11.20;99625.00;;;;5071370;28;20209;-70
2021/03/21 08:18:03;;;;;;;9.50;5.65;;;3.70;85.60;11.20;99627.00;;;;5008877;28;20424;-69
2021/03/21 08:20:36;;;;;;;8.60;5.80;;;3.70;85.60;11.30;99621.00;;;;4976471;28;20402;-70
2021/03/21 08:23:15;;;;;;;10.52;5.95;;;3.70;85.60;11.20;99622.00;;;;5028612;28;20201;-69
2021/03/21 08:25:41;;;;;;;9.27;6.10;;;3.70;85.60;11.30;99612.00;;;;5070708;28;20196;-69
2021/03/21 08:28:11;;;;;;;10.00;6.40;;;3.70;85.60;11.20;99612.00;;;;5069543;28;20181;-70
2021/03/21 08:30:58;;;;;;;8.70;5.40;;;3.70;85.70;11.20;99605.00;;;;5053760;28;20468;-69
2021/03/21 08:33:42;;;;;;;11.07;6.18;;;3.70;85.70;11.30;99607.00;;;;5053429;28;20624;-69
2021/03/21 08:36:25;;;;;;;10.93;6.28;;;3.70;85.70;11.30;99602.00;;;;5069687;28;20244;-70
2021/03/21 08:39:14;;;;;;;9.55;6.00;;;3.70;85.70;11.20;99597.00;;;;5070123;28;20220;-69
2021/03/21 08:41:52;;;;;;;9.52;5.53;;;3.70;85.80;11.30;99595.00;;;;5069473;28;20205;-69
2021/03/21 08:44:47;;;;;;;8.38;5.45;;;3.70;85.80;11.20;99583.00;;;;5036691;28;20197;-70
2021/03/21 08:47:24;;;;;;;8.73;5.50;;;3.70;85.80;11.30;99592.00;;;;5031653;28;20217;-70
2021/03/21 08:49:54;;;;;;;10.68;6.57;;;3.70;85.80;11.20;99580.00;;;;5052835;28;20258;-70
2021/03/21 08:52:48;;;;;;;7.47;5.13;;;3.70;85.80;11.20;99586.00;;;;5068038;28;20292;-69
2021/03/21 08:55:29;;;;;;;9.05;5.95;;;3.70;85.90;11.20;99577.00;;;;5051666;28;20213;-70
2021/03/21 08:57:55;;;;;;;10.38;6.05;;;3.70;85.80;11.10;99597.00;;;;5052319;28;20181;-69
2021/03/21 09:00:26;;;;;;;8.63;5.20;;;3.70;85.80;11.20;99585.00;;;;5049190;28;20236;-69
2021/03/21 09:02:52;;;;;;;8.98;5.68;;;3.70;85.80;11.20;99584.00;;;;5048906;28;20182;-70
2021/03/21 09:05:20;;;;;;;9.10;5.60;;;3.70;85.90;11.20;99587.00;;;;5015699;28;20189;-70
2021/03/21 09:07:49;;;;;;;8.10;4.70;;;3.70;85.90;11.10;99591.00;;;;5047749;28;20830;-70
2021/03/21 09:10:29;;;;;;;7.82;5.25;;;3.70;85.90;11.10;99589.00;;;;5047057;28;20609;-70
2021/03/21 09:13:01;;;;;;;9.43;6.07;;;3.70;85.90;11.20;99590.00;;;;5065243;28;20599;-70
2021/03/21 09:15:34;;;;;;;8.55;5.38;;;3.70;85.90;11.20;99587.00;;;;5065681;28;20225;-70
2021/03/21 09:18:21;;;;;;;9.80;5.50;;;3.70;85.90;11.30;99588.00;;;;5064476;28;20178;-70
2021/03/21 09:21:19;;;;;;;7.90;5.20;;;3.70;85.90;11.10;99584.00;;;;5050028;28;20654;-70
2021/03/21 09:23:59;;;;;;;8.00;4.95;;;3.70;85.90;11.00;99583.00;;;;5062368;28;20185;-70
2021/03/21 09:26:37;;;;;;;9.50;4.60;;;3.70;86.00;11.00;99567.00;;;;5049522;28;20710;-70
2021/03/21 09:29:29;;;;;;;7.20;4.32;;;3.70;85.90;10.80;99568.00;;;;5048444;28;20193;-70
2021/03/21 09:32:04;;;;;;;7.43;4.90;;;3.70;85.90;11.00;99578.00;;;;5063714;28;20217;-70
2021/03/21 09:34:43;;;;;;;7.15;4.90;;;3.70;86.00;11.10;99545.00;;;;5032721;28;20263;-70
2021/03/21 09:37:15;;;;;;;8.80;5.57;;;3.70;86.00;11.00;99535.00;;;;5032775;28;20861;-70
2021/03/21 09:40:01;;;;;;;8.77;5.20;;;3.70;86.00;11.10;99561.00;;;;5047423;28;20225;-70
2021/03/21 09:42:27;;;;;;;9.25;4.72;;;3.70;86.00;11.10;99562.00;;;;5032451;28;20868;-70
2021/03/21 09:44:52;;;;;;;7.67;4.63;;;3.70;86.00;11.10;99551.00;;;;5048063;28;20182;-70
2021/03/21 09:47:28;;;;;;;8.30;4.50;;;3.70;86.10;10.90;99553.00;;;;5066706;28;20206;-70
2021/03/21 09:50:16;;;;;;;10.07;5.40;;;3.70;86.00;11.00;99552.00;;;;5068117;28;20449;-70
2021/03/21 09:53:08;;;;;;;7.88;4.75;;;3.70;86.00;11.00;99547.00;;;;5068771;28;20188;-70
2021/03/21 09:55:53;;;;;;;7.35;4.95;;;3.70;86.10;11.00;99541.00;;;;5019732;28;20594;-70
2021/03/21 09:58:41;;;;;;;7.05;4.03;;;3.70;86.10;10.90;99540.00;;;;5066949;28;20178;-70
2021/03/21 10:01:39;;;;;;;6.18;4.28;;;3.70;86.10;11.00;99540.00;;;;5054458;28;20193;-71
2021/03/21 10:04:30;;;;;;;7.28;4.72;;;3.70;86.10;11.00;99540.00;;;;5051577;28;20289;-70
2021/03/21 10:07:07;;;;;;;6.63;4.47;;;3.70;86.10;10.80;99535.00;;;;5067682;28;20231;-70
2021/03/21 10:09:33;;;;;;;6.80;4.00;;;3.70;86.10;10.70;99524.00;;;;5052036;28;20644;-71
2021/03/21 10:12:06;;;;;;;6.78;4.20;;;3.70;86.10;11.00;99505.00;;;;5050920;28;20208;-70
2021/03/21 10:14:32;;;;;;;7.00;4.40;;;3.70;86.10;11.00;99523.00;;;;5051147;28;20213;-70
2021/03/21 10:17:18;;;;;;;6.77;4.20;;;3.70;86.10;10.90;99512.00;;;;5069467;28;20196;-70
2021/03/21 10:19:54;;;;;;;7.25;5.05;;;3.70;86.10;11.00;99508.00;;;;5068888;28;20250;-70
2021/03/21 10:22:26;;;;;;;6.55;3.90;;;3.70;86.10;10.90;99501.00;;;;5069786;28;20203;-71
2021/03/21 10:24:56;;;;;;;6.60;4.53;;;3.70;86.20;10.80;99501.00;;;;5069224;28;20182;-71
2021/03/21 10:27:29;;;;;;;7.13;4.20;;;3.70;86.20;10.90;99493.00;;;;5048656;28;20231;-71
2021/03/21 10:30:19;;;;;;;8.40;4.75;;;3.70;86.20;11.00;99491.00;;;;5066915;28;20193;-71
2021/03/21 10:32:58;;;;;;;8.95;4.80;;;3.70;86.30;10.80;99488.00;;;;5061047;28;20189;-71
2021/03/21 10:35:30;;;;;;;5.88;3.88;;;3.70;86.30;10.90;99484.00;;;;5046418;28;20587;-71
2021/03/21 10:38:10;;;;;;;8.13;5.00;;;3.70;86.30;10.90;99478.00;;;;5047243;28;20186;-71
2021/03/21 10:40:39;;;;;;;6.90;4.00;;;3.70;86.30;11.00;99482.00;;;;5063764;28;20271;-71
2021/03/21 10:43:18;;;;;;;8.77;4.30;;;3.70;86.30;11.10;99493.00;;;;5047103;28;20636;-71
2021/03/21 10:45:43;;;;;;;7.43;4.50;;;3.70;86.30;11.20;99488.00;;;;5037108;28;20208;-71
2021/03/21 10:48:15;;;;;;;7.07;4.47;;;3.70;86.30;11.00;99493.00;;;;5048702;28;20194;-71
2021/03/21 10:51:00;;;;;;;7.65;5.20;;;3.70;86.30;11.00;99479.00;;;;5048098;28;20757;-71
2021/03/21 10:53:48;;;;;;;7.57;4.78;;;3.70;86.30;11.00;99480.00;;;;5047877;28;20175;-71
2021/03/21 10:56:17;;;;;;;8.05;4.95;;;3.70;86.30;11.00;99472.00;;;;5047410;28;20267;-71
2021/03/21 10:58:46;;;;;;;7.63;4.90;;;3.70;86.30;10.90;99471.00;;;;5031331;28;20178;-71
2021/03/21 11:01:18;;;;;;;6.25;4.68;;;3.70;86.30;10.90;99469.00;;;;5047905;28;20787;-71
2021/03/21 11:03:49;;;;;;;8.00;5.05;;;3.70;86.40;11.00;99468.00;;;;5047245;28;20181;-71
2021/03/21 11:06:19;;;;;;;8.02;4.35;;;3.70;86.40;11.00;99451.00;;;;5048010;28;20209;-71
2021/03/21 11:08:45;;;;;;;6.97;4.60;;;3.70;86.40;11.00;99457.00;;;;5047443;28;20181;-71
2021/03/21 11:11:18;;;;;;;6.15;4.22;;;3.70;86.40;11.00;99464.00;;;;5045939;28;20194;-71
2021/03/21 11:13:44;;;;;;;7.18;4.88;;;3.70;86.40;10.90;99444.00;;;;5030981;28;20186;-71
2021/03/21 11:16:22;;;;;;;6.93;4.72;;;3.70;86.40;11.00;99457.00;;;;5031348;28;20217;-71
2021/03/21 11:19:11;;;;;;;7.10;4.63;;;3.70;86.40;10.90;99454.00;;;;5033244;28;20762;-71
2021/03/21 11:21:38;;;;;;;8.00;5.07;;;3.70;86.40;11.10;99432.00;;;;5044445;28;20492;-71
2021/03/21 11:24:23;;;;;;;6.70;4.25;;;3.70;86.40;11.20;99441.00;;;;5053122;28;20279;-71
2021/03/21 11:26:50;;;;;;;7.30;4.95;;;3.70;86.50;11.20;99426.00;;;;5071883;28;20680;-71
2021/03/21 11:29:36;;;;;;;5.57;3.92;;;3.70;86.50;11.10;99412.00;;;;5070636;28;20193;-71
2021/03/21 11:32:32;;;;;;;6.28;3.90;;;3.70;86.50;11.00;99420.00;;;;5054258;28;20201;-71
2021/03/21 11:35:22;;;;;;;6.40;4.15;;;3.70;86.50;11.10;99419.00;;;;5057504;28;20312;-71
2021/03/21 11:37:48;;;;;;;6.35;4.75;;;3.70;86.50;11.00;99421.00;;;;5055099;28;20224;-71
2021/03/21 11:40:30;;;;;;;7.43;5.20;;;3.70;86.50;11.20;99410.00;;;;5036476;28;20221;-71
2021/03/21 11:43:20;;;;;;;7.10;4.90;;;3.70;86.50;11.20;99403.00;;;;5054165;28;20889;-71
2021/03/21 11:45:46;;;;;;;5.40;3.88;;;3.70;86.50;11.10;99395.00;;;;5071741;28;20202;-71
2021/03/21 11:48:32;;;;;;;7.93;4.60;;;3.70;86.60;11.20;99384.00;;;;5054055;28;20663;-71
2021/03/21 11:50:58;;;;;;;7.55;5.13;;;3.70;86.50;11.20;99382.00;;;;5054108;28;20205;-71
2021/03/21 11:53:27;;;;;;;6.97;4.60;;;3.70;86.60;11.20;99383.00;;;;5053329;28;20638;-71
2021/03/21 11:56:22;;;;;;;6.03;4.13;;;3.70;86.60;11.10;99379.00;;;;5052611;28;20243;-71
2021/03/21 11:58:58;;;;;;;5.60;4.43;;;3.70;86.60;11.20;99391.00;;;;5056187;28;20260;-71
2021/03/21 12:01:35;;;;;;;6.22;4.65;;;3.70;86.60;11.10;99382.00;;;;5054543;28;20209;-71